createdAt,value
2018-04-28T00:00:00.429Z,100612.23
2018-04-28T00:02:28.531Z,100612.83
2018-04-28T00:04:56.619Z,100611.94
2018-04-28T00:07:25.587Z,100617.29
2018-04-28T00:09:53.713Z,100614.66
2018-04-28T00:12:21.808Z,100614.73
2018-04-28T00:14:49.915Z,100615.42
2018-04-28T00:17:18.772Z,100621.72
2018-04-28T00:19:50.719Z,100622.15
2018-04-28T00:22:22.867Z,100628.39
2018-04-28T00:28:11.997Z,100620.28
2018-04-28T00:30:47.043Z,100620.50
2018-04-28T00:33:21.046Z,100620.20
2018-04-28T00:35:55.030Z,100617.74
2018-04-28T00:38:23.141Z,100617.69
2018-04-28T00:40:51.273Z,100615.59
2018-04-28T00:43:21.674Z,100618.11
2018-04-28T00:49:09.314Z,100615.22
2018-04-28T00:51:37.711Z,100617.75
2018-04-28T00:54:13.531Z,100622.28
2018-04-28T00:56:47.613Z,100616.31
2018-04-28T00:59:20.471Z,100625.23
2018-04-28T01:01:49.316Z,100620.25
2018-04-28T01:04:23.349Z,100623.80
2018-04-28T01:06:51.547Z,100616.47
2018-04-28T01:09:28.848Z,100620.41
2018-04-28T01:11:57.032Z,100626.59
2018-04-28T01:14:44.001Z,100624.45
2018-04-28T01:17:14.123Z,100624.22
2018-04-28T01:19:42.995Z,100626.16
2018-04-28T01:22:11.094Z,100626.42
2018-04-28T01:24:48.367Z,100627.24
2018-04-28T01:27:29.231Z,100630.53
2018-04-28T01:30:00.259Z,100633.19
2018-04-28T01:32:28.540Z,100638.23
2018-04-28T01:35:00.175Z,100643.63
2018-04-28T01:37:30.839Z,100645.40
2018-04-28T01:40:10.134Z,100644.31
2018-04-28T01:42:53.635Z,100652.59
2018-04-28T01:45:32.549Z,100654.06
2018-04-28T01:48:05.244Z,100655.21
2018-04-28T01:53:56.642Z,100658.26
2018-04-28T01:56:25.689Z,100657.93
2018-04-28T01:58:57.103Z,100652.19
2018-04-28T02:01:33.803Z,100658.89
2018-04-28T02:04:08.729Z,100663.19
2018-04-28T02:06:47.321Z,100667.88
2018-04-28T02:09:19.019Z,100663.80
2018-04-28T02:11:58.872Z,100669.84
2018-04-28T02:14:36.495Z,100673.97
2018-04-28T02:17:08.153Z,100674.66
2018-04-28T02:19:43.296Z,100669.88
2018-04-28T02:22:26.889Z,100673.33
2018-04-28T02:25:04.362Z,100672.86
2018-04-28T02:30:30.709Z,100673.66
2018-04-28T02:33:09.416Z,100678.17
2018-04-28T02:35:38.416Z,100680.42
2018-04-28T02:38:11.399Z,100669.12
2018-04-28T02:43:55.960Z,100675.09
2018-04-28T02:46:48.038Z,100680.31
2018-04-28T02:52:38.893Z,100681.33
2018-04-28T02:58:24.506Z,100674.56
2018-04-28T03:13:52.682Z,100686.72
2018-04-28T03:16:28.394Z,100688.08
2018-04-28T03:18:56.518Z,100695.31
2018-04-28T03:21:25.066Z,100691.23
2018-04-28T03:23:55.920Z,100687.20
2018-04-28T03:26:28.096Z,100687.78
2018-04-28T03:29:03.026Z,100690.94
2018-04-28T03:31:38.967Z,100694.81
2018-04-28T03:34:15.931Z,100683.19
2018-04-28T03:40:23.035Z,100691.11
2018-04-28T03:45:51.534Z,100692.11
2018-04-28T03:48:29.503Z,100695.48
2018-04-28T03:50:59.995Z,100696.57
2018-04-28T03:53:31.066Z,100699.72
2018-04-28T03:56:01.755Z,100700.00
2018-04-28T03:58:41.497Z,100695.27
2018-04-28T04:01:21.234Z,100704.12
2018-04-28T04:04:01.969Z,100699.33
2018-04-28T04:06:34.592Z,100699.73
2018-04-28T04:09:10.199Z,100702.03
2018-04-28T04:11:45.796Z,100698.34
2018-04-28T04:14:25.717Z,100704.22
2018-04-28T04:17:04.949Z,100714.24
2018-04-28T04:19:44.782Z,100709.28
2018-04-28T04:22:17.331Z,100711.55
2018-04-28T04:24:53.195Z,100713.83
2018-04-28T04:27:27.022Z,100716.00
2018-04-28T04:30:03.716Z,100723.73
2018-04-28T04:32:40.880Z,100720.92
2018-04-28T04:35:19.515Z,100721.59
2018-04-28T04:37:59.943Z,100723.48
2018-04-28T04:40:44.282Z,100719.24
2018-04-28T04:43:19.061Z,100724.63
2018-04-28T04:45:55.883Z,100726.18
2018-04-28T04:48:40.775Z,100727.62
2018-04-28T04:51:20.723Z,100725.45
2018-04-28T04:53:58.395Z,100725.53
2018-04-28T04:56:34.175Z,100726.94
2018-04-28T04:59:14.240Z,100726.30
2018-04-28T05:01:44.940Z,100731.16
2018-04-28T05:04:27.047Z,100725.28
2018-04-28T05:10:04.746Z,100730.72
2018-04-28T05:12:34.787Z,100736.59
2018-04-28T05:15:14.719Z,100736.38
2018-04-28T05:17:54.529Z,100733.84
2018-04-28T05:23:41.968Z,100738.11
2018-04-28T05:26:17.561Z,100748.29
2018-04-28T05:29:03.887Z,100759.21
2018-04-28T05:34:36.788Z,100766.20
2018-04-28T05:37:10.392Z,100771.14
2018-04-28T05:39:55.855Z,100766.77
2018-04-28T05:45:52.068Z,100777.38
2018-04-28T05:51:33.658Z,100779.55
2018-04-28T05:54:19.412Z,100782.91
2018-04-28T06:00:19.712Z,100784.70
2018-04-28T06:02:57.475Z,100785.95
2018-04-28T06:05:32.230Z,100789.55
2018-04-28T06:11:08.263Z,100794.25
2018-04-28T06:13:41.979Z,100799.20
2018-04-28T06:16:18.090Z,100805.68
2018-04-28T06:21:49.198Z,100801.80
2018-04-28T06:24:17.303Z,100810.40
2018-04-28T06:26:46.359Z,100811.65
2018-04-28T06:29:14.446Z,100816.27
2018-04-28T06:31:42.563Z,100817.13
2018-04-28T06:34:10.664Z,100823.45
2018-04-28T06:36:39.185Z,100821.20
2018-04-28T06:39:07.363Z,100824.56
2018-04-28T06:41:35.451Z,100821.02
2018-04-28T06:44:03.544Z,100827.68
2018-04-28T06:46:31.685Z,100829.09
2018-04-28T06:48:59.769Z,100832.14
2018-04-28T06:51:28.125Z,100834.96
2018-04-28T06:53:56.266Z,100842.48
2018-04-28T06:56:24.378Z,100838.84
2018-04-28T06:58:52.458Z,100839.94
2018-04-28T07:01:20.546Z,100837.31
2018-04-28T07:03:54.159Z,100840.62
2018-04-28T07:06:22.246Z,100844.14
2018-04-28T07:08:50.334Z,100842.61
2018-04-28T07:11:18.434Z,100846.00
2018-04-28T07:13:46.552Z,100843.61
2018-04-28T07:16:15.387Z,100842.72
2018-04-28T07:18:43.467Z,100840.86
2018-04-28T07:21:11.575Z,100843.06
2018-04-28T07:23:39.656Z,100844.28
2018-04-28T07:26:08.294Z,100840.92
2018-04-28T07:28:36.395Z,100847.92
2018-04-28T07:31:04.485Z,100849.27
2018-04-28T07:33:32.570Z,100848.69
2018-04-28T07:36:00.678Z,100849.80
2018-04-28T07:38:28.784Z,100848.88
2018-04-28T07:40:56.948Z,100849.27
2018-04-28T07:43:25.044Z,100851.99
2018-04-28T07:45:53.121Z,100854.50
2018-04-28T07:48:21.229Z,100850.13
2018-04-28T07:50:49.326Z,100849.45
2018-04-28T07:53:17.403Z,100851.83
2018-04-28T07:55:45.519Z,100856.02
2018-04-28T07:58:13.604Z,100854.27
2018-04-28T08:00:41.691Z,100854.27
2018-04-28T08:03:10.247Z,100866.63
2018-04-28T08:05:39.149Z,100860.63
2018-04-28T08:08:08.294Z,100858.38
2018-04-28T08:10:36.375Z,100866.28
2018-04-28T08:13:04.472Z,100862.48
2018-04-28T08:15:32.571Z,100858.53
2018-04-28T08:18:00.736Z,100862.84
2018-04-28T08:20:28.827Z,100862.05
2018-04-28T08:22:57.531Z,100855.17
2018-04-28T08:25:31.143Z,100862.33
2018-04-28T08:28:04.647Z,100868.70
2018-04-28T08:30:32.759Z,100873.28
2018-04-28T08:33:00.857Z,100868.57
2018-04-28T08:35:29.675Z,100874.36
2018-04-28T08:37:57.767Z,100866.64
2018-04-28T08:40:26.513Z,100871.75
2018-04-28T08:42:54.619Z,100878.48
2018-04-28T08:45:23.642Z,100878.09
2018-04-28T08:47:51.721Z,100890.75
2018-04-28T08:50:19.819Z,100886.81
2018-04-28T08:52:47.981Z,100890.27
2018-04-28T08:55:16.102Z,100890.69
2018-04-28T08:57:44.223Z,100898.77
2018-04-28T09:00:24.270Z,100895.05
2018-04-28T09:02:52.395Z,100891.20
2018-04-28T09:05:20.485Z,100889.27
2018-04-28T09:07:48.571Z,100895.15
2018-04-28T09:10:16.901Z,100917.58
2018-04-28T09:12:45.007Z,100916.30
2018-04-28T09:15:13.981Z,100922.63
2018-04-28T09:17:42.068Z,100915.45
2018-04-28T09:20:10.175Z,100922.69
2018-04-28T09:22:38.255Z,100919.69
2018-04-28T09:25:06.637Z,100923.91
2018-04-28T09:27:34.746Z,100924.73
2018-04-28T09:30:02.887Z,100932.91
2018-04-28T09:32:30.975Z,100927.30
2018-04-28T09:34:59.068Z,100926.73
2018-04-28T09:37:27.167Z,100920.61
2018-04-28T09:39:55.329Z,100919.88
2018-04-28T09:42:23.671Z,100927.77
2018-04-28T09:44:51.767Z,100919.96
2018-04-28T09:47:19.865Z,100924.59
2018-04-28T09:49:47.979Z,100921.75
2018-04-28T09:52:16.170Z,100924.63
2018-04-28T09:54:44.263Z,100930.34
2018-04-28T09:57:17.277Z,100930.31
2018-04-28T09:59:45.371Z,100926.80
2018-04-28T10:02:18.495Z,100935.86
2018-04-28T10:04:46.608Z,100942.71
2018-04-28T10:07:14.719Z,100938.91
2018-04-28T10:09:42.817Z,100935.37
2018-04-28T10:12:11.272Z,100944.73
2018-04-28T10:14:39.371Z,100941.79
2018-04-28T10:17:07.501Z,100945.49
2018-04-28T10:19:35.624Z,100939.40
2018-04-28T10:22:03.795Z,100936.79
2018-04-28T10:24:31.886Z,100940.52
2018-04-28T10:26:59.983Z,100937.82
2018-04-28T10:29:28.097Z,100941.09
2018-04-28T10:31:56.189Z,100945.63
2018-04-28T10:34:25.105Z,100937.64
2018-04-28T10:36:53.197Z,100951.63
2018-04-28T10:39:21.325Z,100943.21
2018-04-28T10:41:50.335Z,100932.63
2018-04-28T10:44:18.438Z,100947.16
2018-04-28T10:46:46.528Z,100952.54
2018-04-28T10:49:14.603Z,100943.98
2018-04-28T10:51:43.599Z,100944.14
2018-04-28T10:54:11.683Z,100943.45
2018-04-28T10:56:39.778Z,100934.30
2018-04-28T10:59:07.880Z,100941.87
2018-04-28T11:01:35.996Z,100938.86
2018-04-28T11:04:04.753Z,100938.32
2018-04-28T11:06:32.889Z,100935.55
2018-04-28T11:09:01.046Z,100943.45
2018-04-28T11:11:29.162Z,100947.91
2018-04-28T11:13:57.246Z,100949.50
2018-04-28T11:16:25.362Z,100949.20
2018-04-28T11:18:53.491Z,100954.03
2018-04-28T11:21:22.618Z,100959.78
2018-04-28T11:23:50.813Z,100959.71
2018-04-28T11:26:18.892Z,100976.90
2018-04-28T11:28:47.104Z,100975.22
2018-04-28T11:31:15.200Z,100973.26
2018-04-28T11:33:43.272Z,100974.52
2018-04-28T11:36:12.288Z,100974.88
2018-04-28T11:38:40.768Z,100982.87
2018-04-28T11:41:09.706Z,100977.88
2018-04-28T11:43:37.777Z,100973.08
2018-04-28T11:46:05.879Z,100977.98
2018-04-28T11:48:33.960Z,100979.47
2018-04-28T11:51:02.397Z,100987.09
2018-04-28T11:53:30.494Z,100983.05
2018-04-28T11:55:58.597Z,100982.50
2018-04-28T11:58:26.690Z,100984.64
2018-04-28T12:13:59.881Z,100977.81
2018-04-28T12:16:27.970Z,100973.72
2018-04-28T12:18:56.096Z,100983.45
2018-04-28T12:21:24.225Z,100976.78
2018-04-28T12:23:52.329Z,100981.83
2018-04-28T12:26:20.421Z,100986.05
2018-04-28T12:28:49.141Z,100979.66
2018-04-28T12:31:17.228Z,100984.89
2018-04-28T12:33:50.290Z,100982.78
2018-04-28T12:36:18.382Z,100987.40
2018-04-28T12:38:46.496Z,100988.44
2018-04-28T12:43:48.955Z,100987.48
2018-04-28T12:46:17.040Z,100982.92
2018-04-28T12:48:45.158Z,100978.25
2018-04-28T12:51:13.239Z,100979.00
2018-04-28T12:53:41.326Z,100982.25
2018-04-28T12:56:09.448Z,100976.91
2018-04-28T12:58:37.532Z,100983.56
2018-04-28T13:01:05.719Z,100987.27
2018-04-28T13:03:33.820Z,100979.22
2018-04-28T13:06:01.950Z,100982.00
2018-04-28T13:08:30.032Z,100982.19
2018-04-28T13:10:58.116Z,100983.28
2018-04-28T13:13:27.009Z,100980.91
2018-04-28T13:15:55.567Z,100981.93
2018-04-28T13:18:24.528Z,100987.86
2018-04-28T13:20:52.668Z,100981.17
2018-04-28T13:23:20.756Z,100982.30
2018-04-28T13:38:45.332Z,100989.95
2018-04-28T13:41:13.420Z,100991.83
2018-04-28T13:43:42.083Z,100990.98
2018-04-28T13:46:10.381Z,100996.53
2018-04-28T13:48:38.457Z,100989.78
2018-04-28T13:51:06.559Z,101000.71
2018-04-28T13:53:34.648Z,101001.50
2018-04-28T13:56:02.791Z,101002.66
2018-04-28T13:58:31.366Z,101010.08
2018-04-28T14:00:59.763Z,101012.66
2018-04-28T14:03:27.880Z,101014.59
2018-04-28T14:05:55.984Z,101014.13
2018-04-28T14:08:24.132Z,101009.23
2018-04-28T14:10:52.599Z,101015.68
2018-04-28T14:13:25.628Z,101009.46
2018-04-28T14:15:53.745Z,101011.58
2018-04-28T14:18:22.172Z,101013.22
2018-04-28T14:20:51.272Z,101020.36
2018-04-28T14:23:19.368Z,101024.27
2018-04-28T14:25:47.432Z,101020.17
2018-04-28T14:28:15.698Z,101013.77
2018-04-28T14:30:43.808Z,101017.45
2018-04-28T14:33:12.438Z,101009.13
2018-04-28T14:35:40.517Z,101007.67
2018-04-28T14:38:08.612Z,101003.74
2018-04-28T14:40:36.929Z,101006.69
2018-04-28T14:43:10.609Z,101008.03
2018-04-28T14:45:38.730Z,101016.20
2018-04-28T14:48:06.809Z,101014.77
2018-04-28T14:50:34.910Z,101014.95
2018-04-28T14:53:03.035Z,101008.62
2018-04-28T14:55:31.606Z,101007.80
2018-04-28T14:57:59.721Z,101006.98
2018-04-28T15:00:27.841Z,101017.00
2018-04-28T15:02:55.989Z,101009.63
2018-04-28T15:05:24.844Z,101010.88
2018-04-28T15:07:53.048Z,101006.20
2018-04-28T15:10:21.200Z,101011.83
2018-04-28T15:12:49.314Z,101008.61
2018-04-28T15:15:19.216Z,101010.53
2018-04-28T15:17:47.657Z,101006.20
2018-04-28T15:20:15.770Z,101014.88
2018-04-28T15:22:43.867Z,101020.11
2018-04-28T15:25:12.474Z,101016.42
2018-04-28T15:27:40.582Z,101014.72
2018-04-28T15:30:08.716Z,101023.97
2018-04-28T15:32:36.832Z,101020.19
2018-04-28T15:35:05.830Z,101025.02
2018-04-28T15:37:40.535Z,101021.71
2018-04-28T15:40:09.558Z,101027.35
2018-04-28T15:42:38.677Z,101027.05
2018-04-28T15:45:06.806Z,101029.13
2018-04-28T15:47:34.903Z,101025.80
2018-04-28T15:50:08.580Z,101020.95
2018-04-28T15:52:36.677Z,101028.45
2018-04-28T15:55:04.800Z,101025.77
2018-04-28T15:57:32.904Z,101022.97
2018-04-28T16:00:01.049Z,101027.37
2018-04-28T16:02:29.594Z,101031.48
2018-04-28T16:04:57.716Z,101026.86
2018-04-28T16:07:25.807Z,101028.27
2018-04-28T16:09:53.942Z,101028.78
2018-04-28T16:12:22.052Z,101028.05
2018-04-28T16:14:50.238Z,101031.27
2018-04-28T16:17:19.295Z,101027.52
2018-04-28T16:19:47.394Z,101026.59
2018-04-28T16:22:15.488Z,101026.84
2018-04-28T16:24:43.579Z,101028.38
2018-04-28T16:27:11.845Z,101027.52
2018-04-28T16:29:39.880Z,101032.75
2018-04-28T16:32:08.946Z,101032.69
2018-04-28T16:34:37.970Z,101025.33
2018-04-28T16:37:06.068Z,101032.08
2018-04-28T16:39:35.154Z,101030.30
2018-04-28T16:42:03.248Z,101027.55
2018-04-28T16:44:31.356Z,101028.86
2018-04-28T16:47:00.397Z,101028.44
2018-04-28T16:49:29.473Z,101026.44
2018-04-28T16:51:57.607Z,101029.48
2018-04-28T16:54:26.500Z,101029.06
2018-04-28T16:56:55.295Z,101024.91
2018-04-28T16:59:24.426Z,101027.27
2018-04-28T17:01:52.486Z,101025.20
2018-04-28T17:04:21.290Z,101029.39
2018-04-28T17:06:49.382Z,101020.88
2018-04-28T17:09:17.482Z,101024.69
2018-04-28T17:11:45.578Z,101023.52
2018-04-28T17:14:14.869Z,101018.27
2018-04-28T17:16:42.998Z,101017.44
2018-04-28T17:19:11.749Z,101021.66
2018-04-28T17:21:39.830Z,101016.73
2018-04-28T17:24:08.852Z,101026.53
2018-04-28T17:26:36.988Z,101032.99
2018-04-28T17:29:05.395Z,101035.14
2018-04-28T17:31:33.482Z,101035.93
2018-04-28T17:34:01.610Z,101041.38
2018-04-28T17:36:29.711Z,101049.86
2018-04-28T17:38:57.826Z,101041.77
2018-04-28T17:41:25.926Z,101052.49
2018-04-28T17:43:54.764Z,101051.91
2018-04-28T17:46:22.882Z,101050.41
2018-04-28T17:48:51.029Z,101054.33
2018-04-28T17:51:19.138Z,101053.78
2018-04-28T17:53:47.872Z,101059.14
2018-04-28T17:56:16.018Z,101062.36
2018-04-28T17:58:44.109Z,101060.91
2018-04-28T18:01:12.221Z,101058.31
2018-04-28T18:03:40.334Z,101056.92
2018-04-28T18:06:09.373Z,101058.16
2018-04-28T18:08:38.358Z,101059.18
2018-04-28T18:11:06.488Z,101063.51
2018-04-28T18:13:34.602Z,101066.58
2018-04-28T18:16:03.442Z,101065.52
2018-04-28T18:18:32.312Z,101069.64
2018-04-28T18:21:00.438Z,101069.01
2018-04-28T18:23:29.343Z,101070.30
2018-04-28T18:25:57.694Z,101066.63
2018-04-28T18:28:25.810Z,101067.94
2018-04-28T18:30:54.020Z,101070.46
2018-04-28T18:33:22.184Z,101070.28
2018-04-28T18:35:50.311Z,101077.11
2018-04-28T18:38:18.598Z,101080.77
2018-04-28T18:40:46.763Z,101081.80
2018-04-28T18:43:14.770Z,101082.80
2018-04-28T18:45:48.519Z,101087.53
2018-04-28T18:48:22.234Z,101087.27
2018-04-28T18:50:50.350Z,101089.70
2018-04-28T18:53:19.219Z,101090.37
2018-04-28T18:55:47.345Z,101097.05
2018-04-28T18:58:15.435Z,101096.67
2018-04-28T19:00:43.552Z,101097.25
2018-04-28T19:03:11.672Z,101099.02
2018-04-28T19:05:40.134Z,101098.87
2018-04-28T19:08:08.569Z,101104.06
2018-04-28T19:10:36.915Z,101099.81
2018-04-28T19:13:05.012Z,101106.27
2018-04-28T19:15:33.986Z,101106.04
2018-04-28T19:18:02.175Z,101115.72
2018-04-28T19:20:30.245Z,101106.81
2018-04-28T19:22:58.348Z,101115.03
2018-04-28T19:25:26.462Z,101122.16
2018-04-28T19:27:54.560Z,101122.36
2018-04-28T19:30:22.671Z,101122.28
2018-04-28T19:32:51.427Z,101124.19
2018-04-28T19:35:19.514Z,101124.56
2018-04-28T19:37:47.682Z,101129.42
2018-04-28T19:40:15.779Z,101134.47
2018-04-28T19:42:43.901Z,101134.35
2018-04-28T19:45:12.005Z,101140.29
2018-04-28T19:47:41.131Z,101137.35
2018-04-28T19:50:09.863Z,101143.31
2018-04-28T19:52:37.986Z,101139.82
2018-04-28T19:55:06.079Z,101143.02
2018-04-28T19:57:34.223Z,101143.84
2018-04-28T20:00:02.343Z,101149.02
2018-04-28T20:02:31.827Z,101148.94
2018-04-28T20:05:00.724Z,101148.09
2018-04-28T20:07:28.863Z,101150.67
2018-04-28T20:09:57.623Z,101145.39
2018-04-28T20:12:25.707Z,101152.45
2018-04-28T20:14:53.910Z,101151.36
2018-04-28T20:17:22.242Z,101157.97
2018-04-28T20:19:50.593Z,101154.85
2018-04-28T20:22:31.379Z,101159.45
2018-04-28T20:25:11.227Z,101152.67
2018-04-28T20:27:39.482Z,101155.64
2018-04-28T20:30:07.739Z,101162.06
2018-04-28T20:32:35.818Z,101155.80
2018-04-28T20:35:03.952Z,101157.77
2018-04-28T20:37:32.058Z,101150.77
2018-04-28T20:40:00.168Z,101153.24
2018-04-28T20:42:28.323Z,101149.16
2018-04-28T20:44:56.478Z,101150.69
2018-04-28T20:47:29.559Z,101155.13
2018-04-28T20:49:58.580Z,101155.59
2018-04-28T20:52:26.729Z,101156.95
2018-04-28T20:54:54.831Z,101161.97
2018-04-28T20:57:23.689Z,101158.02
2018-04-28T20:59:52.014Z,101157.05
2018-04-28T21:02:20.084Z,101148.94
2018-04-28T21:04:48.233Z,101146.73
2018-04-28T21:07:16.336Z,101152.81
